Time;durP1;ratioP1;P1;durP2;ratioP2;P2;SDS_P1;SDS_P2;PMS_P1;PMS_P2;Temp;Humidity;BMP_temperature;BMP_pressure;BME280_temperature;BME280_humidity;BME280_pressure;Samples;Min_cycle;Max_cycle;Signal;HPM_P1;HPM_P2
2022/02/26 00:02:30;;;;;;;12.07;5.40;;;;;;;9.11;54.36;100108.03;6865136;28;20728;-79
2022/02/26 00:05:52;;;;;;;7.53;4.50;;;;;;;9.18;54.02;100114.41;6865494;28;20572;-79
2022/02/26 00:09:15;;;;;;;8.83;4.90;;;;;;;9.23;54.17;100104.88;6865168;28;20209;-79
2022/02/26 00:12:36;;;;;;;7.13;4.30;;;;;;;8.67;54.57;100092.25;6863952;28;20711;-79
2022/02/26 00:15:58;;;;;;;9.57;4.90;;;;;;;8.97;54.70;100110.50;6864665;28;20274;-79
2022/02/26 00:19:21;;;;;;;8.57;4.50;;;;;;;8.79;55.17;100121.34;6865177;28;20233;-79
2022/02/26 00:22:43;;;;;;;4.90;4.37;;;;;;;8.87;54.82;100120.53;6866660;28;20232;-80
2022/02/26 00:26:05;;;;;;;9.17;4.70;;;;;;;8.84;55.00;100131.63;6865743;28;20201;-79
2022/02/26 00:29:26;;;;;;;7.73;4.80;;;;;;;8.96;54.81;100130.34;6865182;28;20209;-80
2022/02/26 00:32:48;;;;;;;8.00;4.80;;;;;;;9.04;54.39;100132.03;6864105;28;20943;-79
2022/02/26 00:36:11;;;;;;;13.33;5.13;;;;;;;9.01;54.40;100128.84;6864511;28;20251;-79
2022/02/26 00:39:33;;;;;;;10.13;4.90;;;;;;;8.96;54.21;100133.84;6864107;28;20229;-79
2022/02/26 00:42:54;;;;;;;10.03;5.00;;;;;;;8.99;54.35;100142.44;6864636;28;20250;-80
2022/02/26 00:46:16;;;;;;;7.90;4.50;;;;;;;8.81;54.24;100110.44;6865980;28;20209;-79
2022/02/26 00:49:50;;;;;;;10.57;5.00;;;;;;;8.74;54.75;100161.34;6865818;28;20552;-79
2022/02/26 00:53:13;;;;;;;9.07;4.57;;;;;;;8.87;54.36;100164.44;6865695;28;20364;-79
2022/02/26 00:56:35;;;;;;;9.03;4.80;;;;;;;8.70;54.95;100164.50;6866417;28;20220;-79
2022/02/26 00:59:57;;;;;;;6.00;4.57;;;;;;;9.10;53.72;100170.91;6864845;28;20228;-79
2022/02/26 01:03:18;;;;;;;7.87;4.83;;;;;;;9.10;53.93;100171.75;6865325;28;20308;-79
2022/02/26 01:06:40;;;;;;;5.57;4.57;;;;;;;9.13;53.62;100171.44;6865096;28;20351;-79
2022/02/26 01:10:03;;;;;;;6.30;4.00;;;;;;;9.39;53.06;100174.84;6865963;28;20271;-79
2022/02/26 01:13:25;;;;;;;5.40;4.13;;;;;;;9.33;53.53;100177.38;6865674;28;20240;-79
2022/02/26 01:16:47;;;;;;;8.47;5.00;;;;;;;9.07;54.01;100174.78;6865049;28;20201;-80
2022/02/26 01:20:09;;;;;;;8.43;4.80;;;;;;;9.04;54.23;100171.56;6864337;28;20268;-79
2022/02/26 01:23:32;;;;;;;12.10;5.13;;;;;;;9.13;53.77;100167.88;6865715;28;20315;-80
2022/02/26 01:26:55;;;;;;;9.27;5.17;;;;;;;8.99;53.92;100169.34;6873744;28;20205;-80
2022/02/26 01:30:16;;;;;;;10.37;5.17;;;;;;;9.11;53.81;100183.34;6873924;28;20296;-80
2022/02/26 01:33:38;;;;;;;8.37;4.97;;;;;;;8.73;54.14;100185.69;6872814;28;20299;-80
2022/02/26 01:36:59;;;;;;;5.40;4.53;;;;;;;8.90;54.05;100190.16;6874696;28;20315;-80
2022/02/26 01:40:21;;;;;;;5.83;4.33;;;;;;;8.84;53.91;100180.88;6874275;28;20233;-80
2022/02/26 01:43:44;;;;;;;6.03;3.97;;;;;;;8.75;54.54;100186.38;6874930;28;20230;-80
2022/02/26 01:47:06;;;;;;;5.77;3.87;;;;;;;8.44;54.80;100172.56;6874998;28;20215;-82
2022/02/26 01:50:29;;;;;;;7.73;4.20;;;;;;;8.43;54.48;100159.31;6876574;28;20209;-80
2022/02/26 01:53:51;;;;;;;9.27;4.40;;;;;;;8.61;54.56;100190.50;6876041;28;20223;-80
2022/02/26 01:57:13;;;;;;;6.77;4.60;;;;;;;8.70;54.12;100178.78;6876552;28;20217;-80
2022/02/26 02:00:36;;;;;;;8.10;4.47;;;;;;;8.54;54.24;100161.75;6876034;28;20229;-80
2022/02/26 02:03:57;;;;;;;7.57;4.50;;;;;;;8.20;54.53;100150.91;6876724;28;20280;-79
2022/02/26 02:07:19;;;;;;;6.27;4.30;;;;;;;8.41;54.54;100178.28;6876385;28;20215;-79
2022/02/26 02:10:43;;;;;;;12.00;4.50;;;;;;;8.50;54.52;100176.50;6876017;28;20207;-80
2022/02/26 02:14:05;;;;;;;7.43;4.33;;;;;;;8.34;55.06;100187.97;6877126;28;20201;-80
2022/02/26 02:17:28;;;;;;;8.37;4.30;;;;;;;8.49;54.51;100188.25;6876110;28;20209;-79
2022/02/26 02:20:50;;;;;;;13.43;4.83;;;;;;;8.25;54.81;100198.81;6875249;28;20229;-79
2022/02/26 02:24:13;;;;;;;9.23;4.63;;;;;;;8.74;54.35;100192.75;6875829;28;20213;-80
2022/02/26 02:27:35;;;;;;;10.13;5.20;;;;;;;8.84;53.77;100199.69;6876123;28;20586;-79
2022/02/26 02:30:57;;;;;;;7.60;5.03;;;;;;;8.65;53.55;100173.03;6874909;28;20216;-80
2022/02/26 02:34:18;;;;;;;9.17;4.47;;;;;;;8.73;53.58;100199.97;6875734;28;20290;-79
2022/02/26 02:37:40;;;;;;;8.90;4.67;;;;;;;8.84;53.65;100188.94;6874810;28;20207;-79
2022/02/26 02:41:03;;;;;;;9.17;5.10;;;;;;;8.67;53.85;100208.66;6873122;28;20237;-79
2022/02/26 02:44:25;;;;;;;10.10;4.60;;;;;;;8.60;53.96;100206.81;6875609;28;20216;-80
2022/02/26 02:47:47;;;;;;;8.47;5.37;;;;;;;8.58;54.74;100216.84;6875536;28;20228;-80
2022/02/26 02:51:08;;;;;;;9.37;4.97;;;;;;;8.69;54.31;100203.13;6875161;28;20228;-80
2022/02/26 02:54:30;;;;;;;8.30;4.80;;;;;;;8.65;54.22;100204.44;6874867;28;20209;-79
2022/02/26 02:57:55;;;;;;;6.83;4.90;;;;;;;8.58;54.47;100216.84;6874511;28;20220;-79
2022/02/26 03:01:16;;;;;;;13.67;4.93;;;;;;;8.70;54.36;100216.44;6874045;28;20303;-79
2022/02/26 03:04:38;;;;;;;7.60;4.90;;;;;;;8.47;54.76;100223.34;6874411;28;20211;-80
2022/02/26 03:07:59;;;;;;;7.93;4.43;;;;;;;8.78;53.79;100234.47;6875271;28;20286;-79
2022/02/26 03:11:21;;;;;;;10.40;5.10;;;;;;;8.81;53.93;100228.75;6879942;28;20233;-80
2022/02/26 03:14:44;;;;;;;9.80;7.13;;;;;;;8.48;54.57;100235.78;6879229;28;20260;-79
2022/02/26 03:18:05;;;;;;;8.60;5.90;;;;;;;8.80;54.24;100236.00;6874780;28;20412;-80
2022/02/26 03:21:27;;;;;;;7.43;5.83;;;;;;;8.61;54.68;100243.44;6873652;28;20243;-80
2022/02/26 03:24:49;;;;;;;9.70;5.60;;;;;;;8.58;54.71;100233.84;6873910;28;20235;-80
2022/02/26 03:28:10;;;;;;;9.70;6.00;;;;;;;8.58;54.58;100247.28;6873841;28;20216;-80
2022/02/26 03:31:34;;;;;;;7.43;5.57;;;;;;;8.49;55.46;100240.13;6873347;28;20227;-80
2022/02/26 03:34:55;;;;;;;25.20;6.43;;;;;;;8.53;55.11;100248.72;6875617;28;20233;-80
2022/02/26 03:38:17;;;;;;;8.67;5.47;;;;;;;8.65;54.63;100251.00;6874699;28;20209;-79
2022/02/26 03:41:38;;;;;;;9.37;5.17;;;;;;;8.61;54.03;100248.81;6874825;28;20528;-80
2022/02/26 03:45:00;;;;;;;10.70;5.93;;;;;;;8.45;54.70;100252.22;6865000;28;20213;-79
2022/02/26 03:48:23;;;;;;;10.03;5.70;;;;;;;8.48;54.74;100248.38;6846805;29;20610;-79
2022/02/26 03:51:44;;;;;;;9.67;5.13;;;;;;;8.14;55.47;100256.28;6850461;28;20701;-80
2022/02/26 03:55:08;;;;;;;11.73;6.13;;;;;;;8.34;55.09;100260.53;6865411;29;20221;-80
2022/02/26 03:58:29;;;;;;;8.13;5.43;;;;;;;8.15;55.30;100262.50;6854620;29;20217;-80
2022/02/26 04:01:52;;;;;;;13.10;6.30;;;;;;;8.36;55.21;100257.69;6852575;29;20241;-80
2022/02/26 04:05:15;;;;;;;6.83;5.87;;;;;;;8.30;55.25;100251.09;6852062;29;20577;-80
2022/02/26 04:08:37;;;;;;;9.03;6.07;;;;;;;8.25;55.04;100237.28;6852233;29;20217;-80
2022/02/26 04:11:58;;;;;;;8.33;5.83;;;;;;;8.38;55.18;100275.31;6852155;29;20226;-80
2022/02/26 04:15:20;;;;;;;8.37;5.87;;;;;;;8.21;55.49;100275.34;6852762;29;20221;-80
2022/02/26 04:18:41;;;;;;;18.50;6.73;;;;;;;8.30;55.87;100271.75;6851927;29;20201;-81
2022/02/26 04:22:05;;;;;;;13.27;6.40;;;;;;;8.01;55.96;100277.31;6851030;29;20236;-80
2022/02/26 04:25:27;;;;;;;11.80;7.10;;;;;;;8.18;55.94;100284.53;6851773;29;20224;-80
2022/02/26 04:28:48;;;;;;;11.03;7.20;;;;;;;8.22;55.97;100293.16;6851666;29;20235;-80
2022/02/26 04:32:10;;;;;;;13.67;6.93;;;;;;;8.29;55.74;100288.84;6851044;29;20852;-80
2022/02/26 04:35:32;;;;;;;10.10;7.37;;;;;;;8.39;54.59;100255.53;6851755;29;20212;-80
2022/02/26 04:38:55;;;;;;;11.37;6.90;;;;;;;8.12;55.25;100292.34;6850816;29;20202;-80
2022/02/26 04:42:16;;;;;;;13.53;7.50;;;;;;;8.02;56.06;100291.59;6861284;28;20315;-80
2022/02/26 04:45:38;;;;;;;15.40;7.30;;;;;;;8.01;56.08;100289.91;6879053;28;20221;-80
2022/02/26 04:48:59;;;;;;;11.03;6.90;;;;;;;7.62;57.09;100291.16;6877276;28;20217;-80
2022/02/26 04:52:21;;;;;;;11.23;6.80;;;;;;;7.87;56.58;100285.91;6877661;28;20225;-80
2022/02/26 04:55:44;;;;;;;15.47;6.73;;;;;;;8.01;56.27;100295.28;6878692;28;20213;-80
2022/02/26 04:59:05;;;;;;;11.23;7.13;;;;;;;7.93;56.54;100311.31;6878022;28;20232;-80
2022/02/26 05:02:27;;;;;;;13.77;7.97;;;;;;;7.83;56.25;100306.00;6875994;28;20233;-80
2022/02/26 05:05:49;;;;;;;14.27;8.00;;;;;;;7.65;56.73;100310.50;6878057;28;20577;-80
2022/02/26 05:09:10;;;;;;;13.00;8.50;;;;;;;7.93;56.28;100306.78;6879780;28;20215;-80
2022/02/26 05:12:33;;;;;;;12.60;7.53;;;;;;;7.99;55.98;100297.25;6875893;28;20242;-80
2022/02/26 05:15:55;;;;;;;14.63;8.63;;;;;;;7.82;56.15;100320.44;6853205;28;20202;-80
2022/02/26 05:19:16;;;;;;;12.63;7.70;;;;;;;7.83;56.42;100308.69;6849876;29;20204;-80
2022/02/26 05:22:39;;;;;;;14.20;7.73;;;;;;;7.84;56.41;100325.66;6849790;29;20229;-80
2022/02/26 05:26:00;;;;;;;15.17;7.37;;;;;;;7.79;56.20;100304.59;6849730;29;20217;-80
2022/02/26 05:29:23;;;;;;;15.43;8.67;;;;;;;7.80;56.59;100316.19;6849426;29;20596;-79
2022/02/26 05:32:45;;;;;;;10.90;7.83;;;;;;;7.74;57.11;100332.91;6849405;29;20221;-80
2022/02/26 05:36:07;;;;;;;15.40;7.77;;;;;;;7.79;56.94;100334.13;6849021;29;20210;-80
2022/02/26 05:39:28;;;;;;;13.30;8.70;;;;;;;7.90;56.67;100338.47;6850226;29;20208;-80
2022/02/26 05:42:50;;;;;;;10.60;7.73;;;;;;;7.82;56.90;100344.59;6848465;29;20317;-80
2022/02/26 05:46:13;;;;;;;12.30;7.93;;;;;;;8.17;56.26;100346.47;6849164;29;20213;-80
2022/02/26 05:49:35;;;;;;;15.23;8.67;;;;;;;7.99;55.63;100310.69;6848266;29;20221;-81
2022/02/26 05:52:56;;;;;;;12.73;9.47;;;;;;;7.99;55.91;100342.94;6848589;29;20232;-80
2022/02/26 05:56:18;;;;;;;15.43;8.80;;;;;;;7.79;56.48;100346.75;6845840;28;20233;-80
2022/02/26 05:59:39;;;;;;;17.27;9.00;;;;;;;7.80;56.96;100370.75;6855049;28;20232;-80
2022/02/26 06:03:02;;;;;;;20.10;9.47;;;;;;;8.13;56.13;100370.13;6867325;28;20238;-80
2022/02/26 06:06:24;;;;;;;13.80;8.90;;;;;;;8.39;55.78;100381.84;6846641;29;20210;-80
2022/02/26 06:09:46;;;;;;;16.30;8.43;;;;;;;8.30;55.51;100368.50;6848346;29;20205;-80
2022/02/26 06:13:07;;;;;;;10.87;8.93;;;;;;;8.22;55.61;100380.00;6847785;28;20253;-80
2022/02/26 06:16:29;;;;;;;15.67;9.03;;;;;;;8.23;55.15;100372.75;6848163;29;20267;-80
2022/02/26 06:19:52;;;;;;;16.07;9.60;;;;;;;8.08;55.96;100387.69;6847510;29;20233;-80
2022/02/26 06:23:13;;;;;;;14.63;10.57;;;;;;;8.19;56.21;100393.69;6848197;29;20227;-80
2022/02/26 06:26:35;;;;;;;14.20;10.87;;;;;;;8.37;55.96;100391.88;6847983;29;20202;-80
2022/02/26 06:29:57;;;;;;;16.23;10.60;;;;;;;8.34;54.98;100377.91;6846857;29;20217;-82
2022/02/26 06:33:18;;;;;;;16.87;9.20;;;;;;;8.53;54.91;100402.81;6844675;29;20233;-81
2022/02/26 06:36:41;;;;;;;12.70;9.03;;;;;;;8.78;54.19;100407.41;6844378;29;20764;-79
2022/02/26 06:40:04;;;;;;;13.83;8.07;;;;;;;8.79;54.16;100402.88;6842213;29;20249;-80
2022/02/26 06:43:26;;;;;;;13.87;9.47;;;;;;;8.45;54.75;100407.25;6842880;29;20582;-79
2022/02/26 06:46:47;;;;;;;17.60;9.03;;;;;;;8.11;55.31;100380.19;6843017;29;20209;-79
2022/02/26 06:50:10;;;;;;;11.83;8.50;;;;;;;8.44;55.48;100408.25;6842466;29;20215;-79
2022/02/26 06:53:33;;;;;;;16.60;9.33;;;;;;;8.27;55.14;100404.56;6842962;29;20633;-79
2022/02/26 07:00:41;;;;;;;16.30;8.80;;;;;;;8.43;54.84;100417.34;6849243;28;20587;-82
2022/02/26 07:04:02;;;;;;;14.60;8.93;;;;;;;8.19;55.50;100425.09;6847675;28;20212;-82
2022/02/26 07:07:24;;;;;;;13.70;8.47;;;;;;;8.59;54.99;100425.53;6845477;29;20227;-81
2022/02/26 07:10:47;;;;;;;17.53;8.80;;;;;;;8.03;54.62;100366.66;6840696;28;20201;-82
2022/02/26 07:14:10;;;;;;;12.90;9.53;;;;;;;8.40;55.20;100434.59;6852409;28;20210;-81
2022/02/26 07:17:31;;;;;;;14.37;9.00;;;;;;;8.35;54.95;100447.66;6862760;28;20201;-83
2022/02/26 07:20:53;;;;;;;15.73;8.90;;;;;;;8.56;54.57;100447.38;6846975;28;20685;-82
2022/02/26 07:24:15;;;;;;;17.73;10.63;;;;;;;8.26;55.01;100437.78;6862071;28;20208;-82
2022/02/26 07:27:38;;;;;;;13.23;9.33;;;;;;;7.80;55.22;100373.44;6868772;28;20416;-82
2022/02/26 07:31:00;;;;;;;18.33;10.23;;;;;;;8.12;54.78;100360.38;6883045;28;20212;-83
2022/02/26 07:34:21;;;;;;;14.93;9.90;;;;;;;8.77;54.23;100459.50;6882718;28;20212;-82
2022/02/26 07:37:43;;;;;;;16.40;9.40;;;;;;;8.32;53.74;100383.44;6858686;29;20209;-83
2022/02/26 07:41:06;;;;;;;21.47;10.57;;;;;;;8.76;54.21;100465.88;6856641;28;20266;-83
2022/02/26 07:44:29;;;;;;;14.83;9.30;;;;;;;8.33;54.87;100455.03;6872037;28;20224;-82
2022/02/26 07:47:50;;;;;;;14.57;8.57;;;;;;;8.49;54.27;100459.72;6872737;28;20216;-83
2022/02/26 07:51:12;;;;;;;17.40;9.73;;;;;;;8.89;54.48;100487.03;6852918;28;20237;-83
2022/02/26 07:54:33;;;;;;;18.87;9.33;;;;;;;8.70;53.62;100484.47;6864929;28;20232;-82
2022/02/26 07:57:55;;;;;;;22.00;9.83;;;;;;;8.56;54.06;100474.25;6859891;28;20293;-83
2022/02/26 08:01:18;;;;;;;17.30;10.00;;;;;;;9.05;53.58;100474.56;6855306;28;20241;-83
2022/02/26 08:04:40;;;;;;;15.40;10.07;;;;;;;8.86;53.39;100495.41;6849449;28;20221;-82
2022/02/26 08:08:02;;;;;;;18.50;10.90;;;;;;;8.77;53.17;100426.41;6843556;28;20206;-84
2022/02/26 08:11:28;;;;;;;21.83;12.20;;;;;;;9.28;51.81;100495.44;6844643;29;20691;-82
2022/02/26 08:14:51;;;;;;;17.30;10.13;;;;;;;8.78;52.99;100492.63;6842901;28;20194;-82
2022/02/26 08:18:17;;;;;;;19.23;10.30;;;;;;;9.24;52.10;100485.16;6842068;29;20210;-83
2022/02/26 08:21:39;;;;;;;15.60;10.13;;;;;;;9.18;51.62;100478.56;6838264;29;20234;-84
2022/02/26 08:25:00;;;;;;;17.57;9.37;;;;;;;9.02;51.88;100482.09;6841010;28;20206;-83
2022/02/26 08:28:22;;;;;;;21.37;11.50;;;;;;;8.77;52.77;100462.19;6840410;29;20689;-83
2022/02/26 08:31:44;;;;;;;15.10;9.73;;;;;;;8.56;53.26;100476.94;6833106;29;20230;-81
2022/02/26 08:35:09;;;;;;;15.97;9.27;;;;;;;8.69;53.20;100494.41;6821513;28;20618;-80
2022/02/26 08:38:30;;;;;;;15.67;9.57;;;;;;;9.18;52.28;100494.72;6837749;28;20206;-80
2022/02/26 08:41:52;;;;;;;21.17;10.77;;;;;;;9.55;51.57;100483.69;6836251;29;20289;-81
2022/02/26 08:45:14;;;;;;;16.67;9.20;;;;;;;9.24;51.59;100491.41;6837174;29;20210;-83
2022/02/26 08:48:36;;;;;;;13.97;9.23;;;;;;;9.72;50.60;100485.50;6840232;29;20210;-84
2022/02/26 08:51:59;;;;;;;16.93;8.33;;;;;;;9.51;49.44;100455.41;6840228;28;20241;-84
2022/02/26 08:55:21;;;;;;;14.87;8.37;;;;;;;9.13;50.21;100496.16;6834764;28;20209;-81
2022/02/26 08:58:44;;;;;;;12.50;7.40;;;;;;;9.15;49.96;100456.50;6841322;29;20586;-82
2022/02/26 09:02:09;;;;;;;14.83;7.67;;;;;;;9.34;49.30;100508.28;6841080;28;20241;-82
2022/02/26 09:05:31;;;;;;;14.67;7.10;;;;;;;9.18;50.23;100483.09;6840834;29;20208;-82
2022/02/26 09:08:53;;;;;;;12.20;7.83;;;;;;;10.69;47.76;100487.66;6841272;29;20301;-82
2022/02/26 09:12:15;;;;;;;15.30;7.10;;;;;;;11.66;44.31;100486.69;6839919;28;20225;-81
2022/02/26 09:15:52;;;;;;;13.47;6.70;;;;;;;12.14;43.32;100483.88;6848856;28;20308;-81
2022/02/26 09:19:13;;;;;;;17.50;7.40;;;;;;;12.02;43.03;100487.97;6736063;29;20225;-81
2022/02/26 09:22:35;;;;;;;12.87;7.73;;;;;;;12.22;42.33;100467.63;6728549;29;20267;-82
2022/02/26 09:25:58;;;;;;;11.90;7.20;;;;;;;12.50;40.85;100482.38;6748073;29;20567;-83
2022/02/26 09:29:20;;;;;;;12.53;6.40;;;;;;;12.47;40.52;100469.22;6713246;29;20235;-82
2022/02/26 09:32:41;;;;;;;12.90;6.40;;;;;;;12.69;39.39;100471.94;6706581;29;20233;-81
2022/02/26 09:36:04;;;;;;;10.13;5.10;;;;;;;11.86;39.64;100482.63;6707015;29;20281;-81
2022/02/26 09:39:26;;;;;;;10.80;5.23;;;;;;;11.86;38.37;100463.72;6706835;29;20214;-81
2022/02/26 09:42:49;;;;;;;11.13;5.17;;;;;;;11.28;38.39;100482.81;6705986;29;20262;-81
2022/02/26 09:46:12;;;;;;;10.47;4.77;;;;;;;11.81;37.96;100485.00;6706050;29;20224;-81
2022/02/26 09:49:34;;;;;;;6.53;3.10;;;;;;;10.96;35.57;100466.63;6726921;29;20209;-83
2022/02/26 09:52:56;;;;;;;15.97;3.90;;;;;;;11.24;35.92;100488.72;6732031;29;20231;-83
2022/02/26 09:56:18;;;;;;;7.40;2.53;;;;;;;10.27;35.05;100484.97;6794169;28;20311;-82
2022/02/26 09:59:43;;;;;;;5.93;2.67;;;;;;;10.44;35.57;100494.81;6841940;28;20198;-83
2022/02/26 10:03:05;;;;;;;6.93;2.80;;;;;;;10.82;34.38;100477.22;6839246;28;20233;-83
2022/02/26 10:06:29;;;;;;;6.00;2.87;;;;;;;10.27;35.70;100487.66;6849792;28;20197;-82
2022/02/26 10:09:50;;;;;;;8.97;2.73;;;;;;;10.97;35.05;100489.03;6860050;28;20210;-82
2022/02/26 10:13:12;;;;;;;5.97;2.83;;;;;;;10.74;34.39;100491.53;6837985;28;20339;-82
2022/02/26 10:16:46;;;;;;;5.47;2.97;;;;;;;10.03;35.39;100489.41;6861726;28;20197;-82
2022/02/26 10:20:13;;;;;;;6.13;2.80;;;;;;;11.64;34.26;100491.44;6846198;28;20219;-83
2022/02/26 10:23:45;;;;;;;8.43;3.07;;;;;;;11.55;33.69;100495.13;6847093;28;20225;-82
2022/02/26 10:27:11;;;;;;;6.90;2.83;;;;;;;11.43;33.29;100488.38;6867337;28;20197;-83
2022/02/26 10:30:36;;;;;;;8.53;2.40;;;;;;;12.35;33.44;100486.84;6866262;28;20197;-83
2022/02/26 10:34:03;;;;;;;7.13;2.53;;;;;;;12.03;31.29;100487.81;6865932;28;20217;-87
2022/02/26 10:37:26;;;;;;;6.13;2.70;;;;;;;12.30;32.19;100473.84;6863426;28;20260;-85
2022/02/26 10:40:57;;;;;;;7.53;2.70;;;;;;;11.79;31.74;100477.06;6863934;28;20209;-83
2022/02/26 10:44:21;;;;;;;9.07;2.80;;;;;;;12.78;31.56;100461.91;6815362;29;20221;-86
2022/02/26 10:47:44;;;;;;;9.33;3.20;;;;;;;13.04;30.25;100465.16;6815526;29;20247;-86
2022/02/26 10:51:14;;;;;;;7.00;3.03;;;;;;;12.62;30.68;100445.81;6818031;29;20231;-86
2022/02/26 10:54:35;;;;;;;11.10;2.97;;;;;;;13.25;31.04;100455.34;6838418;29;20186;-91
2022/02/26 10:57:58;;;;;;;8.53;3.23;;;;;;;12.88;31.59;100460.69;6846883;29;20214;-88
2022/02/26 11:01:21;;;;;;;4.57;2.83;;;;;;;11.96;31.08;100478.72;6834271;29;20240;-92
2022/02/26 11:04:42;;;;;;;4.80;2.77;;;;;;;10.66;33.57;100472.63;6838060;29;20228;-90
2022/02/26 11:08:06;;;;;;;6.37;2.53;;;;;;;11.14;33.79;100459.19;6838401;29;20292;-85
2022/02/26 11:11:27;;;;;;;11.10;3.13;;;;;;;11.92;33.09;100463.84;6837335;29;20377;-89
2022/02/26 11:14:56;;;;;;;4.93;2.63;;;;;;;11.85;32.61;100470.97;6845449;28;20202;-88
2022/02/26 11:18:19;;;;;;;8.17;2.83;;;;;;;11.98;32.10;100468.56;6838482;29;20243;-88
2022/02/26 11:21:41;;;;;;;12.43;4.00;;;;;;;11.38;34.00;100461.88;6840348;29;20245;-89
2022/02/26 11:25:06;;;;;;;6.40;3.07;;;;;;;11.32;33.45;100413.09;6838252;29;20205;-88
2022/02/26 11:28:28;;;;;;;5.80;2.80;;;;;;;11.44;33.06;100460.34;6837779;29;20225;-88
2022/02/26 11:31:55;;;;;;;6.90;3.03;;;;;;;11.18;33.30;100468.66;6841336;29;20789;-86
2022/02/26 11:35:18;;;;;;;6.53;2.87;;;;;;;10.61;33.82;100461.50;6842204;29;20186;-88
2022/02/26 11:38:41;;;;;;;7.93;2.80;;;;;;;10.78;33.54;100465.91;6836106;29;20209;-90
2022/02/26 11:42:28;;;;;;;5.20;3.33;;;;;;;10.63;33.83;100461.34;6836590;29;20310;-88
2022/02/26 11:45:50;;;;;;;5.57;3.10;;;;;;;10.76;35.07;100456.31;6836121;29;20643;-87
2022/02/26 11:49:18;;;;;;;9.13;2.77;;;;;;;10.05;34.18;100455.06;6839682;29;20214;-89
2022/02/26 11:52:48;;;;;;;9.30;4.43;;;;;;;11.08;33.87;100445.53;6839669;29;20281;-87
2022/02/26 11:56:10;;;;;;;8.00;3.17;;;;;;;11.41;33.50;100437.25;6840723;29;20273;-86
2022/02/26 11:59:40;;;;;;;8.70;2.60;;;;;;;11.75;31.99;100431.66;6840258;29;20230;-91
2022/02/26 12:03:25;;;;;;;4.23;2.70;;;;;;;12.10;32.70;100421.19;6832820;29;20234;-87
2022/02/26 12:06:55;;;;;;;7.23;2.53;;;;;;;12.57;31.37;100430.06;6813703;29;20199;-87
2022/02/26 12:10:17;;;;;;;4.50;2.80;;;;;;;11.76;33.45;100430.63;6811900;29;20193;-87
2022/02/26 12:13:40;;;;;;;7.70;2.90;;;;;;;11.65;32.23;100423.72;6818398;29;20572;-88
2022/02/26 12:17:08;;;;;;;8.47;3.20;;;;;;;10.47;34.86;100432.47;6817412;29;20246;-83
2022/02/26 12:20:31;;;;;;;8.20;2.80;;;;;;;10.93;33.60;100410.25;6817703;29;20209;-83
2022/02/26 12:24:15;;;;;;;7.73;3.30;;;;;;;10.46;34.67;100428.06;6831739;29;20238;-85
2022/02/26 12:27:37;;;;;;;5.87;2.57;;;;;;;11.95;33.78;100404.03;6844549;29;20246;-83
2022/02/26 12:31:02;;;;;;;12.60;3.27;;;;;;;11.00;34.20;100414.00;6842054;28;20206;-82
2022/02/26 12:34:27;;;;;;;6.77;3.30;;;;;;;11.18;34.35;100420.06;6837119;29;20296;-83
2022/02/26 12:37:51;;;;;;;8.93;2.93;;;;;;;10.93;34.76;100412.97;6843587;29;20217;-84
2022/02/26 12:41:28;;;;;;;8.40;3.23;;;;;;;10.65;35.16;100360.38;6840392;29;20692;-85
2022/02/26 12:44:51;;;;;;;6.63;2.87;;;;;;;11.19;33.97;100415.50;6839913;28;20580;-85
2022/02/26 12:48:13;;;;;;;7.83;3.10;;;;;;;11.91;33.12;100399.13;6856088;28;20232;-85
2022/02/26 12:51:39;;;;;;;8.17;4.30;;;;;;;11.41;33.94;100371.59;6844669;28;20307;-85
2022/02/26 12:55:08;;;;;;;7.70;2.97;;;;;;;11.31;35.12;100400.63;6855544;28;20220;-84
2022/02/26 12:58:33;;;;;;;6.23;3.30;;;;;;;11.07;34.46;100397.94;6844575;29;20213;-85
2022/02/26 13:01:55;;;;;;;8.60;3.17;;;;;;;10.91;35.17;100396.09;6844546;29;20233;-85
2022/02/26 13:05:17;;;;;;;12.80;3.30;;;;;;;10.97;35.00;100392.72;6865580;28;20293;-85
2022/02/26 13:08:41;;;;;;;9.93;3.50;;;;;;;10.46;35.61;100359.84;6857261;28;20206;-84
2022/02/26 13:12:04;;;;;;;6.60;2.80;;;;;;;10.93;34.79;100329.31;6848379;28;20241;-83
2022/02/26 13:15:25;;;;;;;9.37;3.10;;;;;;;11.48;34.76;100373.44;6842403;28;20221;-83
2022/02/26 13:18:49;;;;;;;5.10;3.27;;;;;;;12.07;33.70;100369.34;6849136;28;20690;-84
2022/02/26 13:22:11;;;;;;;6.87;3.07;;;;;;;11.04;34.80;100368.63;6842279;28;20237;-83
2022/02/26 13:25:37;;;;;;;8.63;3.63;;;;;;;10.70;35.63;100367.94;6843422;29;20210;-83
2022/02/26 13:28:59;;;;;;;6.27;3.20;;;;;;;10.48;35.18;100364.06;6844086;29;20694;-83
2022/02/26 13:32:23;;;;;;;3.63;2.40;;;;;;;9.85;36.46;100353.91;6843690;29;20229;-84
2022/02/26 13:35:45;;;;;;;6.70;2.70;;;;;;;10.12;36.08;100356.38;6844629;29;20205;-84
2022/02/26 13:39:07;;;;;;;3.67;3.13;;;;;;;10.00;35.67;100354.97;6844340;29;20291;-83
2022/02/26 13:42:35;;;;;;;12.80;5.27;;;;;;;10.92;33.88;100351.09;6842515;29;20321;-84
2022/02/26 13:45:57;;;;;;;7.60;3.20;;;;;;;11.17;33.56;100344.63;6848991;28;20217;-85
2022/02/26 13:49:19;;;;;;;7.43;3.80;;;;;;;11.84;32.86;100325.19;6844968;28;20249;-85
2022/02/26 13:52:41;;;;;;;9.30;3.10;;;;;;;10.66;34.37;100335.06;6853343;28;20225;-85
2022/02/26 13:56:04;;;;;;;6.60;2.63;;;;;;;10.53;34.05;100341.97;6842507;29;20217;-85
2022/02/26 13:59:29;;;;;;;4.33;2.70;;;;;;;11.14;32.74;100334.16;6844672;29;20210;-84
2022/02/26 14:02:59;;;;;;;7.40;2.70;;;;;;;10.21;33.76;100323.06;6834340;28;20237;-83
2022/02/26 14:06:31;;;;;;;5.00;2.80;;;;;;;10.96;32.54;100315.47;6839245;29;20214;-84
2022/02/26 14:09:54;;;;;;;10.53;3.40;;;;;;;11.44;32.25;100319.91;6842193;28;20197;-86
2022/02/26 14:13:18;;;;;;;9.60;3.10;;;;;;;11.13;30.94;100246.97;6841283;28;20226;-85
2022/02/26 14:16:41;;;;;;;6.37;3.10;;;;;;;11.13;31.96;100295.53;6861720;28;20197;-87
2022/02/26 14:20:48;;;;;;;3.23;2.10;;;;;;;11.78;30.01;100251.09;6841209;28;20210;-86
2022/02/26 14:24:11;;;;;;;4.40;2.50;;;;;;;11.51;31.06;100308.25;6841314;28;20277;-87
2022/02/26 14:27:55;;;;;;;6.27;2.77;;;;;;;10.71;32.44;100286.00;6841377;29;20609;-86
2022/02/26 14:32:03;;;;;;;7.63;2.97;;;;;;;11.07;32.37;100306.19;6829871;28;20240;-85
2022/02/26 14:35:33;;;;;;;10.93;3.17;;;;;;;10.69;33.46;100271.84;6836184;28;20813;-86
2022/02/26 14:38:55;;;;;;;10.70;3.20;;;;;;;10.48;32.88;100233.75;6835943;28;20212;-86
2022/02/26 14:42:16;;;;;;;3.47;2.60;;;;;;;10.59;33.87;100265.78;6834744;28;20272;-86
2022/02/26 14:45:40;;;;;;;6.03;2.80;;;;;;;11.57;31.61;100295.91;6835696;28;20210;-86
2022/02/26 14:49:11;;;;;;;12.73;2.63;;;;;;;10.21;33.91;100208.00;6836180;29;20214;-87
2022/02/26 14:52:37;;;;;;;4.33;2.30;;;;;;;11.03;32.03;100311.09;6835224;28;20229;-87
2022/02/26 14:56:05;;;;;;;5.93;3.30;;;;;;;10.94;32.95;100257.28;6836131;28;20217;-87
2022/02/26 14:59:27;;;;;;;8.00;3.40;;;;;;;10.80;31.53;100261.53;6839556;28;20213;-87
2022/02/26 15:03:12;;;;;;;8.17;3.60;;;;;;;11.07;32.70;100217.97;6860162;28;20233;-87
2022/02/26 15:06:38;;;;;;;6.27;2.17;;;;;;;12.21;30.79;100296.41;6804742;29;20217;-88
2022/02/26 15:10:00;;;;;;;5.27;2.50;;;;;;;11.77;31.98;100205.31;6836677;28;20209;-88
2022/02/26 15:13:39;;;;;;;5.00;2.63;;;;;;;11.51;30.29;100161.56;6848414;28;20229;-89
2022/02/26 15:17:42;;;;;;;7.03;3.00;;;;;;;11.52;30.56;100288.31;6835087;29;20201;-87
2022/02/26 15:21:04;;;;;;;7.40;3.03;;;;;;;11.69;30.88;100275.63;6845972;28;20407;-88
2022/02/26 15:24:27;;;;;;;5.57;2.43;;;;;;;11.25;31.66;100231.22;6845403;28;20221;-87
2022/02/26 15:27:49;;;;;;;6.60;3.10;;;;;;;11.20;31.35;100263.28;6844146;28;20564;-87
2022/02/26 15:34:56;;;;;;;6.83;3.10;;;;;;;10.61;32.44;100247.56;6858853;28;20640;-87
2022/02/26 15:38:17;;;;;;;5.27;2.30;;;;;;;10.63;32.17;100259.03;6863326;28;20212;-87
2022/02/26 15:41:41;;;;;;;7.17;2.43;;;;;;;10.20;33.48;100253.97;6865361;28;20229;-86
2022/02/26 15:45:02;;;;;;;10.10;3.47;;;;;;;10.35;32.80;100191.16;6868992;28;20225;-87
2022/02/26 15:48:27;;;;;;;6.67;2.70;;;;;;;10.83;32.78;100211.78;6871232;28;20202;-87
2022/02/26 15:51:49;;;;;;;11.77;2.80;;;;;;;10.89;32.23;100184.97;6857873;28;20222;-87
2022/02/26 15:55:10;;;;;;;4.67;2.50;;;;;;;10.86;32.71;100238.44;6844440;29;20224;-87
2022/02/26 15:58:34;;;;;;;7.60;2.73;;;;;;;10.61;32.62;100263.75;6845678;29;20661;-88